createdAt,value
2018-12-30T00:01:43.337Z,14.13
2018-12-30T00:04:12.012Z,14.47
2018-12-30T00:06:40.739Z,14.00
2018-12-30T00:09:09.623Z,13.10
2018-12-30T00:11:38.562Z,13.67
2018-12-30T00:14:07.033Z,12.10
2018-12-30T00:16:35.499Z,13.33
2018-12-30T00:19:03.945Z,14.33
2018-12-30T00:21:32.413Z,13.33
2018-12-30T00:24:00.857Z,11.33
2018-12-30T00:26:29.345Z,14.67
2018-12-30T00:28:58.170Z,14.67
2018-12-30T00:31:26.652Z,11.77
2018-12-30T00:33:55.093Z,13.53
2018-12-30T00:36:23.563Z,14.00
2018-12-30T00:38:52.037Z,12.40
2018-12-30T00:41:20.514Z,10.60
2018-12-30T00:43:49.211Z,11.03
2018-12-30T00:46:17.690Z,11.30
2018-12-30T00:48:46.127Z,10.90
2018-12-30T00:51:17.199Z,12.00
2018-12-30T00:53:44.866Z,10.70
2018-12-30T00:56:13.333Z,9.20
2018-12-30T00:58:41.959Z,9.83
2018-12-30T01:01:10.441Z,9.33
2018-12-30T01:03:38.875Z,8.40
2018-12-30T01:06:07.429Z,8.07
2018-12-30T01:08:35.869Z,7.73
2018-12-30T01:11:04.588Z,8.20
2018-12-30T01:13:33.035Z,7.60
2018-12-30T01:16:01.511Z,7.97
2018-12-30T01:18:29.954Z,9.00
2018-12-30T01:20:58.824Z,6.90
2018-12-30T01:23:27.264Z,8.23
2018-12-30T01:25:56.091Z,7.30
2018-12-30T01:28:24.564Z,7.37
2018-12-30T01:30:53.128Z,8.63
2018-12-30T01:33:21.593Z,6.77
2018-12-30T01:35:50.040Z,7.10
2018-12-30T01:38:18.509Z,7.00
2018-12-30T01:40:46.943Z,7.00
2018-12-30T01:43:15.406Z,5.30
2018-12-30T01:45:43.849Z,5.63
2018-12-30T01:48:12.311Z,4.80
2018-12-30T01:50:40.748Z,5.70
2018-12-30T01:53:09.595Z,5.10
2018-12-30T01:55:38.149Z,5.13
2018-12-30T01:58:06.619Z,5.20
2018-12-30T02:00:35.062Z,5.80
2018-12-30T02:03:03.531Z,4.87
2018-12-30T02:05:32.254Z,4.27
2018-12-30T02:08:00.722Z,3.77
2018-12-30T02:10:29.381Z,3.70
2018-12-30T02:12:57.850Z,3.77
2018-12-30T02:15:26.295Z,3.40
2018-12-30T02:17:54.760Z,2.90
2018-12-30T02:20:23.202Z,3.03
2018-12-30T02:22:51.707Z,2.43
2018-12-30T02:25:20.169Z,1.60
2018-12-30T02:27:48.610Z,1.83
2018-12-30T02:30:17.070Z,1.90
2018-12-30T02:32:45.510Z,1.60
2018-12-30T02:35:13.969Z,1.50
2018-12-30T02:37:42.410Z,1.70
2018-12-30T02:40:10.872Z,1.10
2018-12-30T02:42:39.332Z,1.30
2018-12-30T02:45:07.960Z,1.00
2018-12-30T02:47:36.401Z,0.90
2018-12-30T02:50:06.216Z,0.77
2018-12-30T02:52:34.655Z,0.80
2018-12-30T02:55:03.289Z,0.70
2018-12-30T02:57:31.730Z,0.70
2018-12-30T03:00:00.303Z,0.63
2018-12-30T03:02:28.809Z,0.63
2018-12-30T03:04:57.270Z,0.60
2018-12-30T03:07:25.715Z,0.60
2018-12-30T03:09:54.177Z,0.70
2018-12-30T03:12:22.624Z,0.70
2018-12-30T03:14:51.081Z,0.50
2018-12-30T03:17:19.520Z,1.00
2018-12-30T03:19:47.984Z,0.50
2018-12-30T03:22:16.424Z,0.50
2018-12-30T03:24:44.864Z,0.47
2018-12-30T03:27:13.333Z,0.50
2018-12-30T03:29:41.775Z,0.50
2018-12-30T03:32:10.244Z,0.60
2018-12-30T03:34:38.680Z,0.50
2018-12-30T03:37:07.148Z,0.50
2018-12-30T03:39:35.591Z,0.40
2018-12-30T03:42:04.075Z,0.50
2018-12-30T03:44:32.488Z,0.70
2018-12-30T03:47:00.952Z,0.50
2018-12-30T03:49:29.400Z,0.50
2018-12-30T03:51:57.857Z,0.60
2018-12-30T03:54:26.297Z,0.50
2018-12-30T03:56:54.764Z,0.50
2018-12-30T03:59:23.199Z,0.40
2018-12-30T04:01:51.659Z,0.60
2018-12-30T04:04:20.106Z,0.50
2018-12-30T04:06:48.565Z,0.60
2018-12-30T04:09:17.011Z,0.57
2018-12-30T04:11:45.477Z,0.70
2018-12-30T04:14:13.915Z,0.63
2018-12-30T04:16:42.382Z,1.03
2018-12-30T04:19:10.823Z,0.90
2018-12-30T04:21:39.336Z,0.80
2018-12-30T04:24:07.913Z,1.33
2018-12-30T04:26:36.351Z,1.43
2018-12-30T04:29:04.819Z,1.87
2018-12-30T04:31:33.255Z,3.00
2018-12-30T04:34:01.720Z,2.20
2018-12-30T04:36:30.162Z,2.50
2018-12-30T04:38:58.625Z,1.80
2018-12-30T04:41:27.061Z,1.07
2018-12-30T04:43:55.524Z,1.17
2018-12-30T04:46:23.960Z,1.80
2018-12-30T04:48:52.423Z,1.30
2018-12-30T04:51:20.860Z,0.90
2018-12-30T04:53:49.381Z,1.03
2018-12-30T04:56:17.764Z,2.00
2018-12-30T04:58:46.224Z,1.80
2018-12-30T05:01:14.662Z,3.03
2018-12-30T05:03:43.124Z,2.70
2018-12-30T05:06:11.564Z,2.10
2018-12-30T05:08:40.024Z,1.93
2018-12-30T05:11:08.461Z,2.20
2018-12-30T05:13:36.921Z,2.07
2018-12-30T05:16:05.363Z,2.37
2018-12-30T05:18:33.831Z,1.97
2018-12-30T05:21:02.269Z,1.43
2018-12-30T05:23:30.735Z,1.33
2018-12-30T05:25:59.172Z,1.33
2018-12-30T05:28:27.643Z,1.30
2018-12-30T05:30:56.079Z,0.80
2018-12-30T05:33:24.546Z,0.97
2018-12-30T05:35:52.985Z,0.80
2018-12-30T05:38:21.491Z,1.83
2018-12-30T05:40:49.927Z,0.70
2018-12-30T05:43:18.395Z,0.70
2018-12-30T05:45:46.828Z,1.60
2018-12-30T05:48:15.267Z,1.37
2018-12-30T05:50:43.733Z,0.80
2018-12-30T05:53:12.167Z,0.70
2018-12-30T05:55:40.633Z,1.20
2018-12-30T05:58:09.072Z,1.23
2018-12-30T06:00:37.536Z,1.00
2018-12-30T06:03:05.980Z,0.90
2018-12-30T06:05:34.511Z,0.80
2018-12-30T06:08:02.949Z,0.50
2018-12-30T06:10:31.415Z,0.70
2018-12-30T06:12:59.855Z,1.03
2018-12-30T06:15:28.316Z,1.50
2018-12-30T06:17:56.757Z,1.33
2018-12-30T06:20:25.584Z,0.70
2018-12-30T06:22:54.025Z,1.30
2018-12-30T06:25:22.490Z,1.40
2018-12-30T06:27:50.927Z,1.97
2018-12-30T06:30:19.389Z,1.60
2018-12-30T06:32:47.829Z,1.27
2018-12-30T06:35:16.296Z,3.00
2018-12-30T06:37:44.906Z,1.63
2018-12-30T06:40:13.373Z,2.47
2018-12-30T06:42:41.814Z,1.53
2018-12-30T06:45:10.273Z,1.70
2018-12-30T06:47:38.712Z,3.40
2018-12-30T06:50:07.438Z,2.17
2018-12-30T06:52:35.950Z,2.77
2018-12-30T06:55:04.629Z,1.47
2018-12-30T06:57:33.092Z,2.23
2018-12-30T07:00:01.538Z,3.57
2018-12-30T07:02:30.004Z,3.10
2018-12-30T07:04:58.440Z,2.17
2018-12-30T07:07:26.910Z,2.43
2018-12-30T07:09:55.344Z,2.40
2018-12-30T07:12:23.812Z,3.50
2018-12-30T07:14:52.248Z,2.43
2018-12-30T07:17:20.712Z,2.90
2018-12-30T07:19:49.194Z,2.40
2018-12-30T07:22:17.657Z,2.60
2018-12-30T07:24:46.091Z,3.03
2018-12-30T07:27:14.556Z,2.70
2018-12-30T07:29:42.995Z,2.83
2018-12-30T07:32:11.459Z,3.07
2018-12-30T07:34:39.900Z,2.10
2018-12-30T07:37:08.356Z,2.80
2018-12-30T07:39:36.798Z,2.17
2018-12-30T07:42:05.259Z,1.67
2018-12-30T07:44:33.699Z,1.80
2018-12-30T07:47:02.160Z,2.57
2018-12-30T07:49:30.600Z,1.40
2018-12-30T07:51:59.070Z,2.00
2018-12-30T07:54:27.503Z,1.70
2018-12-30T07:56:55.941Z,1.60
2018-12-30T07:59:24.405Z,1.77
2018-12-30T08:01:52.841Z,3.27
2018-12-30T08:04:21.303Z,1.83
2018-12-30T08:06:49.748Z,2.20
2018-12-30T08:09:18.251Z,1.53
2018-12-30T08:11:46.694Z,1.60
2018-12-30T08:14:15.149Z,1.00
2018-12-30T08:16:43.583Z,1.83
2018-12-30T08:19:12.043Z,1.50
2018-12-30T08:21:40.483Z,1.70
2018-12-30T08:24:12.184Z,1.70
2018-12-30T08:26:40.617Z,1.93
2018-12-30T08:29:09.076Z,1.67
2018-12-30T08:31:37.521Z,2.37
2018-12-30T08:34:05.984Z,2.03
2018-12-30T08:36:34.429Z,2.17
2018-12-30T08:39:03.261Z,2.37
2018-12-30T08:41:31.699Z,1.73
2018-12-30T08:44:00.163Z,1.57
2018-12-30T08:46:28.605Z,1.60
2018-12-30T08:48:57.448Z,1.50
2018-12-30T08:51:27.325Z,1.20
2018-12-30T08:53:55.765Z,1.50
2018-12-30T08:56:24.229Z,1.27
2018-12-30T08:58:52.668Z,1.30
2018-12-30T09:01:28.225Z,0.90
2018-12-30T09:03:51.296Z,1.40
2018-12-30T09:06:19.756Z,1.20
2018-12-30T09:08:48.201Z,1.47
2018-12-30T09:11:16.669Z,1.43
2018-12-30T09:13:45.110Z,0.90
2018-12-30T09:16:13.577Z,1.97
2018-12-30T09:18:42.017Z,1.20
2018-12-30T09:21:10.480Z,1.03
2018-12-30T09:23:38.917Z,1.03
2018-12-30T09:26:07.381Z,1.30
2018-12-30T09:28:35.816Z,1.47
2018-12-30T09:31:04.283Z,1.60
2018-12-30T09:33:32.720Z,1.50
2018-12-30T09:36:01.183Z,1.20
2018-12-30T09:38:29.632Z,1.30
2018-12-30T09:40:58.092Z,1.70
2018-12-30T09:43:26.536Z,2.90
2018-12-30T09:45:54.998Z,1.50
2018-12-30T09:48:23.437Z,1.50
2018-12-30T09:50:51.899Z,1.43
2018-12-30T09:53:20.344Z,1.60
2018-12-30T09:55:48.812Z,1.97
2018-12-30T09:58:17.252Z,1.40
2018-12-30T10:00:47.509Z,1.47
2018-12-30T10:03:16.039Z,1.50
2018-12-30T10:05:44.475Z,1.63
2018-12-30T10:08:12.949Z,2.33
2018-12-30T10:10:41.390Z,2.50
2018-12-30T10:13:09.861Z,2.13
2018-12-30T10:15:38.301Z,1.43
2018-12-30T10:18:06.765Z,1.20
2018-12-30T10:20:35.199Z,1.73
2018-12-30T10:23:03.660Z,1.80
2018-12-30T10:25:32.109Z,2.10
2018-12-30T10:28:00.573Z,2.10
2018-12-30T10:30:29.042Z,2.60
2018-12-30T10:32:57.508Z,1.70
2018-12-30T10:35:25.949Z,2.20
2018-12-30T10:37:54.415Z,2.20
2018-12-30T10:40:22.860Z,2.70
2018-12-30T10:42:51.324Z,1.10
2018-12-30T10:45:19.766Z,2.03
2018-12-30T10:47:48.233Z,2.10
2018-12-30T10:50:16.670Z,1.87
2018-12-30T10:52:45.131Z,1.60
2018-12-30T10:55:13.578Z,1.77
2018-12-30T10:57:42.040Z,1.40
2018-12-30T11:00:10.481Z,2.27
2018-12-30T11:02:39.013Z,1.13
2018-12-30T11:05:07.522Z,2.70
2018-12-30T11:07:35.961Z,2.20
2018-12-30T11:10:05.264Z,1.83
2018-12-30T11:12:33.705Z,1.10
2018-12-30T11:15:02.169Z,3.03
2018-12-30T11:17:30.613Z,1.77
2018-12-30T11:19:59.084Z,1.17
2018-12-30T11:22:27.701Z,2.20
2018-12-30T11:24:56.164Z,1.90
2018-12-30T11:27:24.605Z,1.30
2018-12-30T11:29:53.067Z,1.07
2018-12-30T11:32:22.076Z,1.10
2018-12-30T11:34:50.545Z,1.57
2018-12-30T11:37:18.985Z,1.00
2018-12-30T11:39:47.453Z,0.80
2018-12-30T11:42:15.892Z,1.10
2018-12-30T11:44:44.357Z,0.80
2018-12-30T11:47:12.798Z,1.30
2018-12-30T11:49:41.266Z,0.80
2018-12-30T11:52:09.705Z,1.00
2018-12-30T11:54:38.173Z,1.93
2018-12-30T11:57:06.689Z,1.10
2018-12-30T11:59:35.152Z,1.10
2018-12-30T12:02:03.761Z,1.13
2018-12-30T12:04:32.230Z,0.83
2018-12-30T12:07:00.668Z,1.03
2018-12-30T12:09:29.199Z,1.10
2018-12-30T12:11:57.634Z,0.93
2018-12-30T12:14:26.070Z,1.10
2018-12-30T12:16:54.535Z,1.00
2018-12-30T12:19:22.972Z,0.70
2018-12-30T12:21:51.435Z,0.97
2018-12-30T12:24:24.220Z,1.20
2018-12-30T12:26:50.077Z,1.60
2018-12-30T12:29:18.516Z,1.50
2018-12-30T12:31:46.982Z,1.13
2018-12-30T12:34:15.421Z,1.03
2018-12-30T12:36:43.880Z,1.30
2018-12-30T12:39:12.315Z,1.60
2018-12-30T12:41:40.780Z,2.00
2018-12-30T12:44:09.221Z,1.43
2018-12-30T12:46:37.700Z,1.53
2018-12-30T12:49:06.135Z,1.57
2018-12-30T12:51:34.607Z,1.83
2018-12-30T12:54:03.061Z,1.73
2018-12-30T12:56:31.521Z,1.23
2018-12-30T12:58:59.963Z,1.47
2018-12-30T13:01:28.426Z,1.40
2018-12-30T13:03:57.426Z,2.47
2018-12-30T13:06:25.892Z,3.40
2018-12-30T13:08:54.338Z,2.30
2018-12-30T13:11:22.805Z,1.93
2018-12-30T13:13:51.251Z,2.07
2018-12-30T13:16:19.744Z,2.13
2018-12-30T13:18:48.246Z,1.50
2018-12-30T13:21:16.688Z,2.17
2018-12-30T13:23:45.148Z,2.07
2018-12-30T13:26:13.590Z,1.73
2018-12-30T13:28:42.057Z,1.40
2018-12-30T13:31:10.606Z,1.20
2018-12-30T13:33:39.076Z,2.17
2018-12-30T13:36:09.961Z,1.37
2018-12-30T13:38:38.434Z,1.70
2018-12-30T13:41:06.876Z,3.07
2018-12-30T13:43:35.341Z,1.87
2018-12-30T13:46:03.780Z,2.33
2018-12-30T13:48:32.245Z,1.50
2018-12-30T13:51:00.687Z,1.60
2018-12-30T13:53:29.436Z,1.67
2018-12-30T13:55:59.556Z,2.03
2018-12-30T13:58:28.025Z,1.70
2018-12-30T14:00:56.465Z,2.00
2018-12-30T14:03:24.941Z,1.63
2018-12-30T14:05:53.376Z,1.77
2018-12-30T14:08:21.845Z,2.50
2018-12-30T14:10:50.287Z,2.27
2018-12-30T14:13:18.752Z,2.57
2018-12-30T14:15:51.069Z,1.60
2018-12-30T14:18:17.385Z,1.90
2018-12-30T14:20:45.823Z,1.30
2018-12-30T14:23:14.261Z,1.83
2018-12-30T14:25:42.729Z,1.93
2018-12-30T14:28:11.172Z,1.63
2018-12-30T14:30:39.637Z,2.30
2018-12-30T14:33:08.076Z,1.53
2018-12-30T14:35:36.541Z,1.70
2018-12-30T14:38:04.985Z,2.17
2018-12-30T14:40:33.456Z,1.70
2018-12-30T14:43:01.900Z,1.33
2018-12-30T14:45:30.369Z,2.17
2018-12-30T14:47:58.807Z,1.60
2018-12-30T14:50:27.271Z,2.23
2018-12-30T14:52:55.719Z,2.10
2018-12-30T14:55:24.191Z,1.50
2018-12-30T14:57:52.633Z,1.87
2018-12-30T15:00:21.103Z,2.33
2018-12-30T15:02:49.549Z,2.20
2018-12-30T15:05:18.021Z,1.60
2018-12-30T15:07:46.457Z,1.87
2018-12-30T15:10:14.923Z,2.10
2018-12-30T15:12:43.365Z,2.10
2018-12-30T15:15:11.831Z,3.20
2018-12-30T15:17:40.278Z,2.30
2018-12-30T15:20:08.742Z,2.10
2018-12-30T15:22:37.189Z,2.50
2018-12-30T15:25:11.594Z,2.97
2018-12-30T15:27:36.192Z,1.80
2018-12-30T15:30:06.394Z,2.27
2018-12-30T15:32:34.838Z,1.97
2018-12-30T15:35:03.753Z,3.40
2018-12-30T15:37:32.226Z,2.80
2018-12-30T15:40:00.673Z,2.97
2018-12-30T15:42:29.140Z,2.07
2018-12-30T15:44:57.586Z,4.10
2018-12-30T15:47:26.056Z,2.00
2018-12-30T15:49:54.514Z,3.03
2018-12-30T15:52:22.986Z,2.07
2018-12-30T15:54:51.424Z,2.40
2018-12-30T15:57:19.893Z,2.13
2018-12-30T15:59:48.338Z,2.43
2018-12-30T16:02:16.805Z,2.23
2018-12-30T16:04:45.249Z,2.80
2018-12-30T16:07:13.716Z,2.33
2018-12-30T16:09:42.186Z,2.87
2018-12-30T16:12:10.629Z,2.87
2018-12-30T16:14:39.074Z,2.70
2018-12-30T16:17:07.535Z,2.10
2018-12-30T16:19:35.978Z,2.77
2018-12-30T16:22:04.444Z,2.73
2018-12-30T16:24:32.891Z,1.50
2018-12-30T16:27:01.357Z,2.57
2018-12-30T16:29:29.793Z,2.10
2018-12-30T16:31:58.269Z,2.17
2018-12-30T16:34:26.707Z,2.30
2018-12-30T16:36:55.173Z,1.00
2018-12-30T16:39:23.609Z,2.73
2018-12-30T16:41:52.083Z,2.73
2018-12-30T16:44:20.526Z,2.40
2018-12-30T16:46:49.000Z,1.70
2018-12-30T16:49:17.440Z,2.57
2018-12-30T16:51:45.913Z,2.90
2018-12-30T16:54:14.357Z,2.67
2018-12-30T16:56:42.803Z,2.90
2018-12-30T16:59:11.268Z,2.03
2018-12-30T17:01:39.708Z,2.37
2018-12-30T17:04:08.168Z,2.10
2018-12-30T17:06:36.616Z,2.43
2018-12-30T17:09:07.018Z,3.50
2018-12-30T17:11:35.463Z,3.50
2018-12-30T17:14:03.930Z,3.33
2018-12-30T17:16:32.410Z,2.70
2018-12-30T17:19:00.878Z,2.43
2018-12-30T17:21:29.329Z,3.23
2018-12-30T17:23:57.793Z,2.47
2018-12-30T17:26:26.238Z,3.17
2018-12-30T17:28:54.783Z,2.20
2018-12-30T17:31:23.230Z,2.13
2018-12-30T17:33:51.697Z,2.40
2018-12-30T17:36:20.138Z,3.73
2018-12-30T17:38:48.606Z,2.30
2018-12-30T17:41:17.046Z,3.30
2018-12-30T17:43:45.542Z,2.53
2018-12-30T17:46:18.200Z,3.43
2018-12-30T17:48:44.249Z,2.60
2018-12-30T17:51:12.699Z,2.33
2018-12-30T17:53:41.152Z,2.10
2018-12-30T17:56:09.594Z,3.13
2018-12-30T17:58:38.061Z,2.53
2018-12-30T18:01:06.501Z,2.20
2018-12-30T18:03:34.972Z,2.13
2018-12-30T18:06:03.417Z,2.63
2018-12-30T18:08:31.862Z,2.70
2018-12-30T18:11:00.328Z,3.37
2018-12-30T18:13:28.764Z,2.67
2018-12-30T18:15:57.228Z,2.10
2018-12-30T18:18:25.674Z,3.93
2018-12-30T18:20:54.141Z,2.30
2018-12-30T18:23:22.581Z,2.13
2018-12-30T18:25:58.459Z,2.37
2018-12-30T18:28:21.216Z,3.30
2018-12-30T18:30:49.685Z,2.20
2018-12-30T18:33:18.125Z,2.43
2018-12-30T18:35:46.602Z,2.70
2018-12-30T18:38:15.049Z,3.10
2018-12-30T18:40:43.510Z,3.40
2018-12-30T18:43:11.950Z,2.60
2018-12-30T18:45:40.418Z,2.70
2018-12-30T18:48:08.861Z,2.80
2018-12-30T18:50:37.328Z,2.37
2018-12-30T18:53:05.774Z,2.33
2018-12-30T18:55:34.246Z,2.70
2018-12-30T18:58:02.684Z,2.70
2018-12-30T19:00:31.154Z,3.20
2018-12-30T19:02:59.592Z,3.00
2018-12-30T19:05:28.055Z,3.00
2018-12-30T19:07:56.504Z,3.00
2018-12-30T19:10:24.986Z,3.00
2018-12-30T19:12:53.428Z,2.87
2018-12-30T19:15:21.868Z,3.50
2018-12-30T19:17:50.337Z,3.83
2018-12-30T19:20:18.789Z,2.77
2018-12-30T19:22:47.259Z,2.47
2018-12-30T19:25:15.699Z,2.13
2018-12-30T19:27:44.240Z,3.00
2018-12-30T19:30:12.682Z,2.20
2018-12-30T19:32:41.143Z,2.03
2018-12-30T19:35:09.588Z,4.10
2018-12-30T19:37:38.049Z,2.43
2018-12-30T19:40:09.433Z,3.60
2018-12-30T19:42:37.895Z,2.37
2018-12-30T19:45:07.181Z,2.63
2018-12-30T19:47:35.649Z,3.70
2018-12-30T19:50:05.211Z,2.20
2018-12-30T19:52:33.673Z,3.07
2018-12-30T19:55:02.120Z,2.43
2018-12-30T19:57:30.587Z,2.90
2018-12-30T19:59:59.086Z,2.90
2018-12-30T20:02:27.553Z,3.80
2018-12-30T20:04:55.993Z,2.20
2018-12-30T20:07:24.460Z,3.37
2018-12-30T20:09:52.907Z,3.53
2018-12-30T20:12:21.373Z,3.00
2018-12-30T20:14:49.883Z,3.97
2018-12-30T20:17:18.363Z,4.00
2018-12-30T20:19:46.804Z,4.37
2018-12-30T20:22:15.270Z,5.47
2018-12-30T20:24:43.715Z,4.30
2018-12-30T20:27:12.182Z,4.47
2018-12-30T20:29:40.627Z,4.17
2018-12-30T20:32:09.094Z,4.40
2018-12-30T20:34:37.542Z,3.63
2018-12-30T20:37:06.030Z,4.33
2018-12-30T20:39:34.557Z,4.08
2018-12-30T20:42:03.004Z,4.40
2018-12-30T20:44:31.469Z,3.80
2018-12-30T20:46:59.913Z,4.20
2018-12-30T20:49:28.383Z,4.63
2018-12-30T20:51:56.856Z,4.93
2018-12-30T20:54:25.332Z,4.00
2018-12-30T20:56:53.853Z,4.63
2018-12-30T20:59:22.317Z,4.03
2018-12-30T21:01:50.778Z,4.30
2018-12-30T21:04:19.245Z,3.47
2018-12-30T21:06:47.687Z,6.20
2018-12-30T21:09:16.156Z,4.00
2018-12-30T21:11:44.598Z,4.00
2018-12-30T21:14:13.065Z,3.93
2018-12-30T21:16:41.508Z,4.40
2018-12-30T21:19:10.029Z,4.30
2018-12-30T21:21:38.476Z,6.50
2018-12-30T21:24:06.937Z,5.40
2018-12-30T21:26:35.377Z,4.23
2018-12-30T21:29:03.844Z,3.97
2018-12-30T21:31:32.293Z,3.47
2018-12-30T21:34:00.810Z,4.63
2018-12-30T21:36:29.268Z,3.90
2018-12-30T21:38:57.713Z,4.20
2018-12-30T21:41:26.178Z,4.13
2018-12-30T21:43:54.624Z,4.60
2018-12-30T21:46:23.093Z,4.63
2018-12-30T21:48:51.533Z,5.80
2018-12-30T21:51:20.034Z,6.00
2018-12-30T21:53:48.483Z,5.80
2018-12-30T21:56:16.949Z,5.70
2018-12-30T21:58:45.393Z,5.50
2018-12-30T22:01:13.861Z,4.90
2018-12-30T22:03:42.310Z,4.40
2018-12-30T22:06:10.777Z,4.20
2018-12-30T22:08:39.329Z,3.80
2018-12-30T22:11:07.827Z,3.93
2018-12-30T22:13:36.274Z,4.87
2018-12-30T22:16:04.752Z,4.53
2018-12-30T22:18:33.193Z,5.70
2018-12-30T22:21:01.662Z,4.10
2018-12-30T22:23:30.146Z,5.03
2018-12-30T22:25:58.578Z,5.30
2018-12-30T22:28:27.023Z,4.17
2018-12-30T22:30:55.489Z,4.50
2018-12-30T22:33:23.939Z,4.50
2018-12-30T22:35:52.407Z,4.80
2018-12-30T22:38:20.857Z,4.97
2018-12-30T22:40:49.326Z,4.60
2018-12-30T22:43:17.765Z,4.40
2018-12-30T22:45:46.257Z,3.20
2018-12-30T22:48:14.693Z,3.00
2018-12-30T22:50:43.139Z,3.87
2018-12-30T22:53:11.606Z,3.30
2018-12-30T22:55:40.049Z,3.80
2018-12-30T22:58:08.518Z,3.87
2018-12-30T23:00:41.435Z,3.50
2018-12-30T23:03:09.909Z,3.07
2018-12-30T23:05:38.345Z,4.00
2018-12-30T23:08:06.814Z,3.60
2018-12-30T23:10:35.257Z,3.13
2018-12-30T23:13:03.725Z,5.70
2018-12-30T23:15:32.170Z,3.47
2018-12-30T23:18:00.636Z,3.97
2018-12-30T23:20:29.082Z,4.70
2018-12-30T23:22:57.572Z,3.70
2018-12-30T23:25:26.013Z,4.67
2018-12-30T23:27:54.485Z,4.33
2018-12-30T23:30:22.935Z,5.57
2018-12-30T23:32:51.401Z,3.70
2018-12-30T23:35:19.845Z,5.57
2018-12-30T23:37:48.311Z,2.87
2018-12-30T23:40:16.759Z,4.20
2018-12-30T23:42:45.234Z,3.33
2018-12-30T23:45:13.676Z,5.03
2018-12-30T23:47:42.146Z,5.00
2018-12-30T23:50:10.720Z,4.13
2018-12-30T23:52:39.265Z,4.00
2018-12-30T23:55:07.735Z,3.57
2018-12-30T23:57:36.178Z,2.93
